Goofy Ridge, Illinois
Current Conditions -  °F | °C
As of 9:54 AM on Monday 22 Dec 2014 (Local Time) from KPIA Reporting Station
Light Rain Light Rain  
Wind Chill: 29°   Ceiling: 600
Heat Index: 37°   Visibility: 2mi
Dew Point: 34°   Wind: 13mph
Humidity: 89%   Direction: 100°E
Pressure: 29.77"   Gusts: 17mph
Location:  40.3722°N, 89.9358°W
Report Text: KPIA 221554Z 10011G15KT 2SM -RA BR BKN006 BKN012 OVC019 03/01 A2977 RMK AO2 SLP085 P0003 T00280011
Loading
Personal Weather Stations






























Interactive Weather Map New forecast layout! Learn more

10-Day Weather Forecast

Advertisements
Track Severe Weather on mobile